Time;durP1;ratioP1;P1;durP2;ratioP2;P2;SDS_P1;SDS_P2;PMS_P1;PMS_P2;Temp;Humidity;BMP_temperature;BMP_pressure;BME280_temperature;BME280_humidity;BME280_pressure;Samples;Min_cycle;Max_cycle;Signal;HPM_P1;HPM_P2
2022/09/30 00:00:37;;;;;;;1.50;1.30;;;;;;;-144.22;100.00;60274.75;6281585;28;20360;-42
2022/09/30 00:03:39;;;;;;;1.50;1.40;;;;;;;-144.22;100.00;60274.75;6282924;28;20683;-42
2022/09/30 00:06:41;;;;;;;1.20;1.10;;;;;;;-144.22;100.00;60274.75;6282089;28;20247;-42
2022/09/30 00:09:43;;;;;;;2.10;1.40;;;;;;;-144.22;100.00;60274.75;6281339;28;20605;-42
2022/09/30 00:12:46;;;;;;;2.10;1.17;;;;;;;-144.22;100.00;60274.75;6281831;28;20229;-42
2022/09/30 00:15:48;;;;;;;2.83;1.50;;;;;;;-144.22;100.00;60274.75;6281331;28;20608;-42
2022/09/30 00:18:54;;;;;;;1.70;1.40;;;;;;;-144.22;100.00;60274.75;6280830;28;20235;-42
2022/09/30 00:21:56;;;;;;;1.23;1.13;;;;;;;-144.22;100.00;60274.75;6282439;28;20244;-42
2022/09/30 00:24:58;;;;;;;1.83;1.30;;;;;;;-144.22;100.00;60274.75;6282533;28;20540;-42
2022/09/30 00:28:00;;;;;;;1.93;1.47;;;;;;;-144.22;100.00;60274.75;6281302;28;20370;-43
2022/09/30 00:31:06;;;;;;;1.47;1.30;;;;;;;-144.22;100.00;60274.75;6282332;28;20283;-42
2022/09/30 00:34:09;;;;;;;1.23;0.97;;;;;;;-144.22;100.00;60274.75;6281447;28;20237;-42
2022/09/30 00:37:14;;;;;;;1.67;1.57;;;;;;;-144.22;100.00;60274.75;6281107;28;20572;-42
2022/09/30 00:40:18;;;;;;;1.50;1.30;;;;;;;-144.22;100.00;60274.75;6272486;28;20325;-42
2022/09/30 00:43:40;;;;;;;1.43;1.30;;;;;;;-144.22;100.00;60274.75;6272907;28;20240;-42
2022/09/30 00:46:42;;;;;;;1.20;1.07;;;;;;;-144.22;100.00;60274.75;6263698;28;20233;-43
2022/09/30 00:49:45;;;;;;;2.20;1.63;;;;;;;-144.22;100.00;60274.75;6278773;28;20258;-43
2022/09/30 00:52:56;;;;;;;1.27;1.17;;;;;;;-144.22;100.00;60274.75;6256506;28;20724;-42
2022/09/30 00:56:13;;;;;;;2.97;1.20;;;;;;;-144.22;100.00;60274.75;6257029;28;20238;-42
2022/09/30 00:59:38;;;;;;;1.70;1.60;;;;;;;-144.22;100.00;60274.75;6281305;28;20309;-42
2022/09/30 01:02:40;;;;;;;1.20;1.10;;;;;;;-144.22;100.00;60274.75;6281704;28;20312;-42
2022/09/30 01:05:42;;;;;;;1.40;1.10;;;;;;;-144.22;100.00;60274.75;6281254;28;20228;-44
2022/09/30 01:08:45;;;;;;;1.47;1.20;;;;;;;-144.22;100.00;60274.75;6261937;28;20745;-42
2022/09/30 01:11:48;;;;;;;1.80;1.33;;;;;;;-144.22;100.00;60274.75;6272990;28;20222;-42
2022/09/30 01:14:53;;;;;;;2.70;1.30;;;;;;;-144.22;100.00;60274.75;6279027;28;20259;-42
2022/09/30 01:18:09;;;;;;;1.50;1.40;;;;;;;-144.22;100.00;60274.75;6280660;28;20240;-42
2022/09/30 01:21:26;;;;;;;3.57;1.10;;;;;;;-144.22;100.00;60274.75;6279902;28;20341;-42
2022/09/30 01:24:53;;;;;;;1.03;1.03;;;;;;;-144.22;100.00;60274.75;6279841;28;20693;-42
2022/09/30 01:28:20;;;;;;;1.30;1.17;;;;;;;-144.22;100.00;60274.75;6280131;28;20608;-42
2022/09/30 01:31:36;;;;;;;1.27;1.10;;;;;;;-144.22;100.00;60274.75;6280355;28;20274;-42
2022/09/30 01:35:06;;;;;;;4.60;1.13;;;;;;;-144.22;100.00;60274.75;6279987;28;20441;-42
2022/09/30 01:38:13;;;;;;;2.57;1.20;;;;;;;-144.22;100.00;60274.75;6279160;28;20807;-42
2022/09/30 01:41:34;;;;;;;1.40;1.30;;;;;;;-144.22;100.00;60274.75;6279914;28;20228;-42
2022/09/30 01:45:25;;;;;;;1.90;1.57;;;;;;;-144.22;100.00;60274.75;6261253;28;20228;-42
2022/09/30 01:48:42;;;;;;;1.97;1.30;;;;;;;-144.22;100.00;60274.75;6276039;28;20240;-42
2022/09/30 01:52:03;;;;;;;1.40;1.30;;;;;;;-144.22;100.00;60274.75;6280336;28;20312;-42
2022/09/30 01:55:14;;;;;;;1.50;1.30;;;;;;;-144.22;100.00;60274.75;6277861;28;20349;-45
2022/09/30 01:58:36;;;;;;;2.20;1.20;;;;;;;-144.22;100.00;60274.75;6254646;28;20260;-42
2022/09/30 02:01:53;;;;;;;1.57;1.47;;;;;;;-144.22;100.00;60274.75;6254105;28;20232;-42
2022/09/30 02:05:10;;;;;;;1.57;1.47;;;;;;;-144.22;100.00;60274.75;6255047;28;20242;-42
2022/09/30 02:08:43;;;;;;;1.50;1.40;;;;;;;-144.22;100.00;60274.75;6278457;28;20311;-42
2022/09/30 02:11:45;;;;;;;1.23;1.13;;;;;;;-144.22;100.00;60274.75;6278266;28;20235;-42
2022/09/30 02:14:58;;;;;;;1.37;1.27;;;;;;;-144.22;100.00;60274.75;6278989;28;20247;-42
2022/09/30 02:18:15;;;;;;;1.33;1.20;;;;;;;-144.22;100.00;60274.75;6279985;28;20742;-42
2022/09/30 02:21:30;;;;;;;1.77;1.60;;;;;;;-144.22;100.00;60274.75;6279154;28;20236;-43
2022/09/30 02:24:37;;;;;;;2.30;2.10;;;;;;;-144.22;100.00;60274.75;6279196;28;20233;-42
2022/09/30 02:27:47;;;;;;;2.33;2.13;;;;;;;-144.22;100.00;60274.75;6276909;28;20237;-42
2022/09/30 02:30:51;;;;;;;2.63;2.00;;;;;;;-144.22;100.00;60274.75;6278296;28;20251;-42
2022/09/30 02:34:04;;;;;;;2.07;1.87;;;;;;;-144.22;100.00;60274.75;6278111;28;20301;-42
2022/09/30 02:37:14;;;;;;;4.90;2.10;;;;;;;-144.22;100.00;60274.75;6271802;28;20233;-42
2022/09/30 02:40:30;;;;;;;2.43;1.90;;;;;;;-144.22;100.00;60274.75;6258621;28;20236;-42
2022/09/30 02:43:33;;;;;;;2.17;1.87;;;;;;;-144.22;100.00;60274.75;6278440;28;20233;-42
2022/09/30 02:46:46;;;;;;;2.33;2.10;;;;;;;-144.22;100.00;60274.75;6278992;28;20609;-42
2022/09/30 02:49:50;;;;;;;3.17;2.70;;;;;;;-144.22;100.00;60274.75;6259905;28;20259;-42
2022/09/30 02:53:14;;;;;;;3.43;2.97;;;;;;;-144.22;100.00;60274.75;6277955;28;20240;-42
2022/09/30 02:56:30;;;;;;;3.37;3.07;;;;;;;-144.22;100.00;60274.75;6279059;28;20273;-43
2022/09/30 02:59:32;;;;;;;2.50;2.30;;;;;;;-144.22;100.00;60274.75;6278341;28;20816;-42
2022/09/30 03:02:34;;;;;;;3.17;2.67;;;;;;;-144.22;100.00;60274.75;6259309;28;20590;-42
2022/09/30 03:05:37;;;;;;;2.60;2.40;;;;;;;-144.22;100.00;60274.75;6267765;28;20239;-43
2022/09/30 03:08:40;;;;;;;2.67;2.47;;;;;;;-144.22;100.00;60274.75;6278087;28;20322;-42
2022/09/30 03:11:42;;;;;;;2.63;2.43;;;;;;;-144.22;100.00;60274.75;6278557;28;20776;-42
2022/09/30 03:15:02;;;;;;;2.80;2.60;;;;;;;-144.22;100.00;60274.75;6282288;28;20726;-42
2022/09/30 03:18:16;;;;;;;4.53;2.70;;;;;;;-144.22;100.00;60274.75;6282039;28;20218;-42
2022/09/30 03:21:27;;;;;;;2.70;2.50;;;;;;;-144.22;100.00;60274.75;6283032;28;20233;-42
2022/09/30 03:24:41;;;;;;;3.33;3.03;;;;;;;-144.22;100.00;60274.75;6283146;28;20229;-43
2022/09/30 03:27:54;;;;;;;3.30;3.00;;;;;;;-144.22;100.00;60274.75;6258303;28;20373;-42
2022/09/30 03:31:11;;;;;;;3.50;2.73;;;;;;;-144.22;100.00;60274.75;6282170;28;20228;-42
2022/09/30 03:34:50;;;;;;;3.07;2.77;;;;;;;-144.22;100.00;60274.75;6282823;28;20244;-42
2022/09/30 03:38:31;;;;;;;3.07;2.77;;;;;;;-144.22;100.00;60274.75;6283191;28;20605;-44
2022/09/30 03:41:50;;;;;;;4.03;3.37;;;;;;;-144.22;100.00;60274.75;6282610;28;20230;-42
2022/09/30 03:45:04;;;;;;;3.13;2.70;;;;;;;-144.22;100.00;60274.75;6257557;28;20327;-42
2022/09/30 03:48:10;;;;;;;5.13;2.80;;;;;;;-144.22;100.00;60274.75;6281702;28;20822;-42
2022/09/30 03:51:12;;;;;;;3.30;3.00;;;;;;;-144.22;100.00;60274.75;6282582;28;20306;-42
2022/09/30 03:54:15;;;;;;;4.37;3.97;;;;;;;-144.22;100.00;60274.75;6281574;28;20229;-42
2022/09/30 03:57:17;;;;;;;4.33;3.90;;;;;;;-144.22;100.00;60274.75;6281444;28;20327;-42
2022/09/30 04:00:20;;;;;;;5.00;4.50;;;;;;;-144.22;100.00;60274.75;6281530;28;20217;-44
2022/09/30 04:03:22;;;;;;;4.93;4.43;;;;;;;-144.22;100.00;60274.75;6281988;28;20242;-42
2022/09/30 04:06:25;;;;;;;4.83;4.40;;;;;;;-144.22;100.00;60274.75;6281046;28;20655;-44
2022/09/30 04:09:27;;;;;;;3.53;3.23;;;;;;;-144.22;100.00;60274.75;6282111;28;20239;-42
2022/09/30 04:12:29;;;;;;;6.80;5.00;;;;;;;-144.22;100.00;60274.75;6280843;28;20304;-42
2022/09/30 04:15:31;;;;;;;5.20;4.70;;;;;;;-144.22;100.00;60274.75;6282330;28;20439;-42
2022/09/30 04:18:37;;;;;;;4.67;4.27;;;;;;;-144.22;100.00;60274.75;6281932;28;20252;-42
2022/09/30 04:21:40;;;;;;;4.53;4.10;;;;;;;-144.22;100.00;60274.75;6281915;28;20236;-42
2022/09/30 04:24:42;;;;;;;5.60;5.10;;;;;;;-144.22;100.00;60274.75;6280950;28;20243;-43
2022/09/30 04:27:44;;;;;;;6.77;5.03;;;;;;;-144.22;100.00;60274.75;6282753;28;20241;-45
2022/09/30 04:30:47;;;;;;;5.67;5.03;;;;;;;-144.22;100.00;60274.75;6283767;28;20253;-43
2022/09/30 04:33:49;;;;;;;5.97;5.03;;;;;;;-144.22;100.00;60274.75;6286442;28;20216;-42
2022/09/30 04:36:51;;;;;;;6.70;5.63;;;;;;;-144.22;100.00;60274.75;6286593;28;20235;-42
2022/09/30 04:39:53;;;;;;;6.60;5.67;;;;;;;-144.22;100.00;60274.75;6280941;28;20736;-42
2022/09/30 04:42:55;;;;;;;7.97;7.13;;;;;;;-144.22;100.00;60274.75;6281033;28;20235;-42
2022/09/30 04:45:57;;;;;;;6.87;6.27;;;;;;;-144.22;100.00;60274.75;6280519;28;20760;-41
2022/09/30 04:49:00;;;;;;;7.77;6.77;;;;;;;-144.22;100.00;60274.75;6280136;28;20814;-42
2022/09/30 04:52:06;;;;;;;7.90;6.30;;;;;;;-144.22;100.00;60274.75;6281743;28;20236;-44
2022/09/30 04:55:09;;;;;;;6.23;5.63;;;;;;;-144.22;100.00;60274.75;6271787;28;20450;-42
2022/09/30 04:58:12;;;;;;;6.30;5.70;;;;;;;-144.22;100.00;60274.75;6262150;28;20235;-42
2022/09/30 05:01:15;;;;;;;8.70;6.77;;;;;;;-144.22;100.00;60274.75;6280447;28;20227;-42
2022/09/30 05:04:18;;;;;;;6.43;5.37;;;;;;;-144.22;100.00;60274.75;6280896;28;20236;-42
2022/09/30 05:07:21;;;;;;;7.10;6.40;;;;;;;-144.22;100.00;60274.75;6280460;28;20239;-43
2022/09/30 05:10:23;;;;;;;7.93;6.43;;;;;;;-144.22;100.00;60274.75;6280488;28;20236;-43
2022/09/30 05:13:29;;;;;;;5.60;5.00;;;;;;;-144.22;100.00;60274.75;6279371;28;20230;-42
2022/09/30 05:16:31;;;;;;;8.40;5.47;;;;;;;-144.22;100.00;60274.75;6280477;28;20239;-42
2022/09/30 05:19:34;;;;;;;8.43;5.87;;;;;;;-144.22;100.00;60274.75;6280165;28;20704;-42
2022/09/30 05:22:37;;;;;;;5.77;5.13;;;;;;;-144.22;100.00;60274.75;6280896;28;20722;-42
2022/09/30 05:25:39;;;;;;;5.30;4.80;;;;;;;-144.22;100.00;60274.75;6280154;28;20227;-42
2022/09/30 05:28:41;;;;;;;6.13;5.53;;;;;;;-144.22;100.00;60274.75;6278693;28;20241;-42
2022/09/30 05:31:43;;;;;;;5.67;5.00;;;;;;;-144.22;100.00;60274.75;6278216;28;20246;-42
2022/09/30 05:34:46;;;;;;;6.07;5.13;;;;;;;-144.22;100.00;60274.75;6278880;28;20284;-42
2022/09/30 05:37:48;;;;;;;5.80;5.13;;;;;;;-144.22;100.00;60274.75;6279731;28;20742;-43
2022/09/30 05:40:50;;;;;;;5.13;4.63;;;;;;;-144.22;100.00;60274.75;6278763;28;20233;-43
2022/09/30 05:43:52;;;;;;;5.80;4.03;;;;;;;-144.22;100.00;60274.75;6278834;28;20325;-42
2022/09/30 05:46:54;;;;;;;4.60;4.20;;;;;;;-144.22;100.00;60274.75;6279189;28;20788;-42
2022/09/30 05:49:56;;;;;;;5.23;4.27;;;;;;;-144.22;100.00;60274.75;6279753;28;20272;-43
2022/09/30 05:52:59;;;;;;;5.47;4.77;;;;;;;-144.22;100.00;60274.75;6278786;28;20262;-42
2022/09/30 05:56:01;;;;;;;4.63;4.23;;;;;;;-144.22;100.00;60274.75;6259644;28;20234;-42
2022/09/30 05:59:04;;;;;;;4.50;4.10;;;;;;;-144.22;100.00;60274.75;6278939;28;20239;-43
2022/09/30 06:02:10;;;;;;;4.97;4.17;;;;;;;-144.22;100.00;60274.75;6279084;28;20695;-42
2022/09/30 06:05:12;;;;;;;4.47;4.07;;;;;;;-144.22;100.00;60274.75;6278080;28;20311;-42
2022/09/30 06:08:15;;;;;;;5.00;4.53;;;;;;;-144.22;100.00;60274.75;6278812;28;20305;-43
2022/09/30 06:11:20;;;;;;;4.60;4.17;;;;;;;-144.22;100.00;60274.75;6277787;28;20233;-43
2022/09/30 06:14:23;;;;;;;4.57;4.17;;;;;;;-144.22;100.00;60274.75;6277982;28;20273;-42
2022/09/30 06:17:25;;;;;;;5.17;4.67;;;;;;;-144.22;100.00;60274.75;6278577;28;20737;-43
2022/09/30 06:20:27;;;;;;;5.07;4.57;;;;;;;-144.22;100.00;60274.75;6278777;28;20223;-43
2022/09/30 06:23:30;;;;;;;4.67;4.27;;;;;;;-144.22;100.00;60274.75;6277600;28;20223;-43
2022/09/30 06:26:32;;;;;;;4.90;4.40;;;;;;;-144.22;100.00;60274.75;6277948;28;20227;-42
2022/09/30 06:29:34;;;;;;;4.47;4.03;;;;;;;-144.22;100.00;60274.75;6278406;28;20231;-42
2022/09/30 06:32:36;;;;;;;8.73;4.33;;;;;;;-144.22;100.00;60274.75;6278086;28;20235;-43
2022/09/30 06:35:41;;;;;;;5.37;4.47;;;;;;;-144.22;100.00;60274.75;6261227;28;20696;-43
2022/09/30 06:38:44;;;;;;;5.30;4.80;;;;;;;-144.22;100.00;60274.75;6268872;28;20228;-42
2022/09/30 06:41:46;;;;;;;6.33;4.47;;;;;;;-144.22;100.00;60274.75;6276901;28;20721;-43
2022/09/30 06:44:58;;;;;;;6.00;5.40;;;;;;;-144.22;100.00;60274.75;6277885;28;20366;-43
2022/09/30 06:48:03;;;;;;;5.47;4.97;;;;;;;-144.22;100.00;60274.75;6276949;28;20228;-42
2022/09/30 06:51:08;;;;;;;5.03;4.60;;;;;;;-144.22;100.00;60274.75;6281852;28;20698;-42
2022/09/30 06:54:11;;;;;;;6.37;5.77;;;;;;;-144.22;100.00;60274.75;6278576;28;20201;-43
2022/09/30 06:57:13;;;;;;;6.73;5.60;;;;;;;-144.22;100.00;60274.75;6277609;28;20215;-43
2022/09/30 07:00:16;;;;;;;6.10;5.50;;;;;;;-144.22;100.00;60274.75;6276465;28;20218;-43
2022/09/30 07:03:25;;;;;;;6.17;5.30;;;;;;;-144.22;100.00;60274.75;6276109;28;20212;-42
2022/09/30 07:06:28;;;;;;;5.63;5.13;;;;;;;-144.22;100.00;60274.75;6277342;28;20306;-43
2022/09/30 07:09:30;;;;;;;7.70;6.10;;;;;;;-144.22;100.00;60274.75;6278259;28;20322;-42
2022/09/30 07:12:33;;;;;;;6.10;5.40;;;;;;;-144.22;100.00;60274.75;6278298;28;20325;-43
2022/09/30 07:15:35;;;;;;;6.23;5.73;;;;;;;-144.22;100.00;60274.75;6277371;28;20632;-42
2022/09/30 07:18:38;;;;;;;8.40;6.63;;;;;;;-144.22;100.00;60274.75;6277179;28;20272;-43
2022/09/30 07:21:39;;;;;;;7.07;6.33;;;;;;;-144.22;100.00;60274.75;6278298;28;20238;-42
2022/09/30 07:24:41;;;;;;;7.30;6.60;;;;;;;-144.22;100.00;60274.75;6276883;28;20273;-43
2022/09/30 07:27:44;;;;;;;7.33;6.63;;;;;;;-144.22;100.00;60274.75;6277637;28;20233;-42
2022/09/30 07:30:46;;;;;;;6.87;6.17;;;;;;;-144.22;100.00;60274.75;6277944;28;20230;-42
2022/09/30 07:33:51;;;;;;;10.57;7.07;;;;;;;-144.22;100.00;60274.75;6277001;28;20695;-43
2022/09/30 07:36:53;;;;;;;7.63;6.93;;;;;;;-144.22;100.00;60274.75;6277756;28;20606;-42
2022/09/30 07:39:55;;;;;;;7.50;6.80;;;;;;;-144.22;100.00;60274.75;6277119;28;20582;-43
2022/09/30 07:42:57;;;;;;;7.57;6.90;;;;;;;-144.22;100.00;60274.75;6277609;28;20659;-45
2022/09/30 07:46:23;;;;;;;8.63;7.67;;;;;;;-144.22;100.00;60274.75;6276663;28;20278;-43
2022/09/30 07:49:25;;;;;;;7.63;6.80;;;;;;;-144.22;100.00;60274.75;6275650;28;20618;-43
2022/09/30 07:52:27;;;;;;;7.03;6.33;;;;;;;-144.22;100.00;60274.75;6252762;28;20579;-43
2022/09/30 07:55:29;;;;;;;8.80;7.43;;;;;;;-144.22;100.00;60274.75;6273459;28;20232;-44
2022/09/30 07:58:32;;;;;;;7.20;6.47;;;;;;;-144.22;100.00;60274.75;6277254;28;20308;-44
2022/09/30 08:01:34;;;;;;;7.77;7.07;;;;;;;-144.22;100.00;60274.75;6279202;28;20706;-42
2022/09/30 08:04:36;;;;;;;8.20;7.03;;;;;;;-144.22;100.00;60274.75;6281723;28;20692;-42
2022/09/30 08:07:44;;;;;;;7.43;6.73;;;;;;;-144.22;100.00;60274.75;6280427;28;20242;-42
2022/09/30 08:10:46;;;;;;;7.93;7.13;;;;;;;-144.22;100.00;60274.75;6281180;28;20728;-43
2022/09/30 08:13:53;;;;;;;7.43;6.63;;;;;;;-144.22;100.00;60274.75;6281452;28;20221;-42
2022/09/30 08:16:57;;;;;;;7.23;6.43;;;;;;;-144.22;100.00;60274.75;6280918;28;20606;-42
2022/09/30 08:19:59;;;;;;;7.50;6.50;;;;;;;-144.22;100.00;60274.75;6282044;28;20604;-43
2022/09/30 08:23:01;;;;;;;7.23;6.53;;;;;;;-144.22;100.00;60274.75;6280865;28;20237;-42
2022/09/30 08:26:06;;;;;;;7.63;6.83;;;;;;;-144.22;100.00;60274.75;6263836;28;20243;-42
2022/09/30 08:29:10;;;;;;;6.73;6.13;;;;;;;-144.22;100.00;60274.75;6269710;28;20237;-42
2022/09/30 08:32:21;;;;;;;6.80;6.20;;;;;;;-144.22;100.00;60274.75;6263970;28;20992;-43
2022/09/30 08:35:23;;;;;;;10.53;7.47;;;;;;;-144.22;100.00;60274.75;6280643;28;20217;-43
2022/09/30 08:38:25;;;;;;;8.87;6.50;;;;;;;-144.22;100.00;60274.75;6280529;28;20256;-42
2022/09/30 08:41:53;;;;;;;7.90;7.20;;;;;;;-144.22;100.00;60274.75;6279957;28;20462;-42
2022/09/30 08:45:09;;;;;;;8.03;7.23;;;;;;;-144.22;100.00;60274.75;6280061;28;20255;-43
2022/09/30 08:48:35;;;;;;;7.73;7.00;;;;;;;-144.22;100.00;60274.75;6284708;28;20258;-43
2022/09/30 08:51:46;;;;;;;6.60;5.97;;;;;;;-144.22;100.00;60274.75;6280786;28;20234;-43
2022/09/30 08:54:52;;;;;;;7.43;6.73;;;;;;;-144.22;100.00;60274.75;6280054;28;20234;-44
2022/09/30 08:57:56;;;;;;;7.90;7.10;;;;;;;-144.22;100.00;60274.75;6281152;28;20245;-43
2022/09/30 09:01:14;;;;;;;6.47;5.87;;;;;;;-144.22;100.00;60274.75;6280138;28;20322;-42
2022/09/30 09:04:17;;;;;;;6.93;6.33;;;;;;;-144.22;100.00;60274.75;6280833;28;20285;-43
2022/09/30 09:07:39;;;;;;;6.53;5.93;;;;;;;-144.22;100.00;60274.75;6280148;28;20707;-43
2022/09/30 09:10:45;;;;;;;6.17;5.57;;;;;;;-144.22;100.00;60274.75;6278775;28;20708;-44
2022/09/30 09:14:00;;;;;;;5.70;5.20;;;;;;;-144.22;100.00;60274.75;6279725;28;20238;-43
2022/09/30 09:17:10;;;;;;;6.10;5.50;;;;;;;-144.22;100.00;60274.75;6280215;28;20609;-42
2022/09/30 09:20:20;;;;;;;5.83;5.23;;;;;;;-144.22;100.00;60274.75;6279972;28;20314;-45
2022/09/30 09:23:23;;;;;;;6.63;6.03;;;;;;;-144.22;100.00;60274.75;6279670;28;20227;-42
2022/09/30 09:26:31;;;;;;;5.90;5.40;;;;;;;-144.22;100.00;60274.75;6278586;28;20229;-44
2022/09/30 09:29:42;;;;;;;8.07;5.97;;;;;;;-144.22;100.00;60274.75;6284322;28;20689;-42
2022/09/30 09:32:54;;;;;;;7.87;5.90;;;;;;;-144.22;100.00;60274.75;6278506;28;20316;-42
2022/09/30 09:36:38;;;;;;;5.80;5.23;;;;;;;-144.22;100.00;60274.75;6280019;28;20241;-43
2022/09/30 09:39:52;;;;;;;6.57;5.93;;;;;;;-144.22;100.00;60274.75;6256289;28;20305;-43
2022/09/30 09:43:12;;;;;;;5.10;4.27;;;;;;;-144.22;100.00;60274.75;6278699;28;20229;-43
2022/09/30 09:46:14;;;;;;;7.90;4.93;;;;;;;-144.22;100.00;60274.75;6254985;28;20653;-44
2022/09/30 09:49:22;;;;;;;4.70;4.30;;;;;;;-144.22;100.00;60274.75;6276328;28;20237;-42
2022/09/30 09:53:03;;;;;;;5.83;5.00;;;;;;;-144.22;100.00;60274.75;6279156;28;20229;-44
2022/09/30 09:56:17;;;;;;;6.60;4.23;;;;;;;-144.22;100.00;60274.75;6278888;28;20237;-43
2022/09/30 09:59:20;;;;;;;4.23;3.83;;;;;;;-144.22;100.00;60274.75;6279288;28;20234;-43
2022/09/30 10:02:25;;;;;;;4.37;3.97;;;;;;;-144.22;100.00;60274.75;6276920;28;20264;-44
2022/09/30 10:05:29;;;;;;;4.67;4.27;;;;;;;-144.22;100.00;60274.75;6278803;28;20678;-43
2022/09/30 10:08:38;;;;;;;4.43;3.97;;;;;;;-144.22;100.00;60274.75;6279821;28;20646;-43
2022/09/30 10:11:40;;;;;;;3.70;3.40;;;;;;;-144.22;100.00;60274.75;6278525;28;20235;-43
2022/09/30 10:14:58;;;;;;;3.97;3.30;;;;;;;-144.22;100.00;60274.75;6277102;28;20590;-43
2022/09/30 10:18:00;;;;;;;4.53;4.10;;;;;;;-144.22;100.00;60274.75;6279509;28;20320;-43
2022/09/30 10:21:20;;;;;;;4.27;3.87;;;;;;;-144.22;100.00;60274.75;6276803;28;20254;-43
2022/09/30 10:24:30;;;;;;;4.10;3.33;;;;;;;-144.22;100.00;60274.75;6264470;28;20307;-42
2022/09/30 10:27:33;;;;;;;3.50;3.20;;;;;;;-144.22;100.00;60274.75;6278912;28;20272;-42
2022/09/30 10:30:48;;;;;;;4.23;3.80;;;;;;;-144.22;100.00;60274.75;6277368;28;20604;-42
2022/09/30 10:34:18;;;;;;;4.47;4.07;;;;;;;-144.22;100.00;60274.75;6276553;28;20234;-43
2022/09/30 10:37:23;;;;;;;4.47;4.07;;;;;;;-144.22;100.00;60274.75;6277320;28;20237;-42
2022/09/30 10:40:28;;;;;;;11.97;3.87;;;;;;;-144.22;100.00;60274.75;6279179;28;20234;-41
2022/09/30 10:43:40;;;;;;;3.63;3.33;;;;;;;-144.22;100.00;60274.75;6278101;28;20239;-42
2022/09/30 10:46:45;;;;;;;5.30;4.27;;;;;;;-144.22;100.00;60274.75;6277760;28;20601;-42
2022/09/30 10:49:51;;;;;;;3.93;3.53;;;;;;;-144.22;100.00;60274.75;6278103;28;20237;-42
2022/09/30 10:52:57;;;;;;;3.20;2.90;;;;;;;-144.22;100.00;60274.75;6277317;28;20248;-42
2022/09/30 10:56:00;;;;;;;2.90;2.70;;;;;;;-144.22;100.00;60274.75;6277280;28;20849;-43
2022/09/30 10:59:05;;;;;;;4.93;2.83;;;;;;;-144.22;100.00;60274.75;6278333;28;20233;-44
2022/09/30 11:02:36;;;;;;;2.97;2.70;;;;;;;-144.22;100.00;60274.75;6253103;28;20734;-41
2022/09/30 11:05:42;;;;;;;2.70;2.50;;;;;;;-144.22;100.00;60274.75;6252572;28;20227;-42
2022/09/30 11:08:54;;;;;;;2.83;2.10;;;;;;;-144.22;100.00;60274.75;6275819;28;20605;-41
2022/09/30 11:12:01;;;;;;;2.63;2.43;;;;;;;-144.22;100.00;60274.75;6278507;28;20238;-42
2022/09/30 11:15:23;;;;;;;2.40;2.00;;;;;;;-144.22;100.00;60274.75;6276525;28;20285;-41
2022/09/30 11:18:33;;;;;;;3.03;2.00;;;;;;;-144.22;100.00;60274.75;6278225;28;20227;-42
2022/09/30 11:21:55;;;;;;;2.20;1.93;;;;;;;-144.22;100.00;60274.75;6277456;28;20233;-41
2022/09/30 11:24:57;;;;;;;2.07;1.87;;;;;;;-144.22;100.00;60274.75;6276088;28;20262;-42
2022/09/30 11:28:02;;;;;;;2.83;2.10;;;;;;;-144.22;100.00;60274.75;6276961;28;20575;-43
2022/09/30 11:31:15;;;;;;;1.43;1.33;;;;;;;-144.22;100.00;60274.75;6276643;28;20239;-44
2022/09/30 11:34:27;;;;;;;4.43;1.80;;;;;;;-144.22;100.00;60274.75;6276553;28;20253;-42
2022/09/30 11:37:49;;;;;;;1.70;1.60;;;;;;;-144.22;100.00;60274.75;6259854;28;20587;-42
2022/09/30 11:41:08;;;;;;;1.50;1.40;;;;;;;-144.22;100.00;60274.75;6266495;28;20716;-43
2022/09/30 11:44:16;;;;;;;1.70;1.60;;;;;;;-144.22;100.00;60274.75;6282164;28;20317;-44
2022/09/30 11:48:02;;;;;;;1.57;1.43;;;;;;;-144.22;100.00;60274.75;6281276;28;20230;-42
2022/09/30 11:51:23;;;;;;;1.97;1.80;;;;;;;-144.22;100.00;60274.75;6282353;28;20241;-43
2022/09/30 11:54:33;;;;;;;1.60;1.50;;;;;;;-144.22;100.00;60274.75;6281801;28;20226;-44
2022/09/30 11:57:56;;;;;;;1.70;1.60;;;;;;;-144.22;100.00;60274.75;6281597;28;20230;-42
2022/09/30 12:01:10;;;;;;;1.87;1.27;;;;;;;-144.22;100.00;60274.75;6281840;28;20230;-42
2022/09/30 12:04:14;;;;;;;1.70;1.60;;;;;;;-144.22;100.00;60274.75;6282500;28;20732;-42
2022/09/30 12:07:24;;;;;;;1.67;1.10;;;;;;;19.15;100.00;60274.75;6280564;28;20253;-42
2022/09/30 12:10:36;;;;;;;1.83;1.47;;;;;;;-144.22;100.00;60274.75;6282042;28;20262;-43
2022/09/30 12:13:56;;;;;;;2.43;1.60;;;;;;;-144.22;100.00;60274.75;6281606;28;20239;-42
2022/09/30 12:17:01;;;;;;;1.53;1.37;;;;;;;20.44;100.00;60274.75;6280712;28;20680;-42
2022/09/30 12:20:18;;;;;;;1.03;1.03;;;;;;;-144.22;100.00;60274.75;6281480;28;20238;-42
2022/09/30 12:23:31;;;;;;;1.80;1.40;;;;;;;-144.22;100.00;60274.75;6280555;28;20222;-42
2022/09/30 12:26:34;;;;;;;1.20;1.07;;;;;;;-144.22;100.00;60274.75;6281020;28;20227;-42
2022/09/30 12:33:30;;;;;;;1.23;1.00;;;;;;;-144.22;100.00;60274.75;6279770;28;20886;-43
2022/09/30 12:36:44;;;;;;;2.13;1.03;;;;;;;-144.22;100.00;60274.75;6279184;28;20234;-42
2022/09/30 12:40:08;;;;;;;1.30;1.20;;;;;;;-144.22;100.00;60274.75;6279852;28;20798;-42
2022/09/30 12:43:16;;;;;;;1.27;1.17;;;;;;;19.11;100.00;60274.75;6278966;28;20222;-43
2022/09/30 12:46:44;;;;;;;1.10;1.00;;;;;;;-144.22;100.00;60274.75;6280304;28;20446;-43
2022/09/30 12:49:48;;;;;;;1.70;1.30;;;;;;;-144.22;100.00;60274.75;6277026;28;20226;-43
2022/09/30 12:52:50;;;;;;;1.83;1.53;;;;;;;19.43;100.00;60274.75;6255478;28;20357;-42
2022/09/30 12:55:53;;;;;;;1.17;1.07;;;;;;;-144.22;100.00;60274.75;6280247;28;20234;-42
2022/09/30 12:58:56;;;;;;;2.07;1.20;;;;;;;-144.22;100.00;60274.75;6279916;28;20688;-43
2022/09/30 13:02:03;;;;;;;1.93;1.30;;;;;;;-144.22;100.00;60274.75;6280614;28;20644;-42
2022/09/30 13:05:26;;;;;;;1.30;1.20;;;;;;;-144.22;100.00;60274.75;6279953;28;20226;-43
2022/09/30 13:08:42;;;;;;;1.63;1.50;;;;;;;-144.22;100.00;60274.75;6283970;28;20721;-43
2022/09/30 13:11:47;;;;;;;1.40;1.30;;;;;;;-144.22;100.00;60274.75;6279563;28;20253;-42
2022/09/30 13:15:27;;;;;;;1.60;1.50;;;;;;;-144.22;100.00;60274.75;6280148;28;20264;-43
2022/09/30 13:18:29;;;;;;;1.07;1.00;;;;;;;-144.22;100.00;60274.75;6279185;28;20227;-43
2022/09/30 13:21:31;;;;;;;1.90;1.63;;;;;;;-144.22;100.00;60274.75;6278949;28;20245;-43
2022/09/30 13:25:12;;;;;;;1.30;1.20;;;;;;;-144.22;100.00;60274.75;6279726;28;20236;-42
2022/09/30 13:28:14;;;;;;;1.43;1.33;;;;;;;19.66;100.00;80398.03;6278589;28;20242;-43
2022/09/30 13:31:18;;;;;;;1.53;1.40;;;;;;;-144.22;100.00;60274.75;6279771;28;20231;-42
2022/09/30 13:34:30;;;;;;;2.13;1.37;;;;;;;22.57;45.34;97308.09;6280186;28;20319;-42
2022/09/30 13:37:37;;;;;;;1.23;1.13;;;;;;;-144.22;100.00;60274.75;6280763;28;20253;-42
2022/09/30 13:41:01;;;;;;;2.23;1.50;;;;;;;-144.22;100.00;60274.75;6261271;28;20230;-43
2022/09/30 13:44:35;;;;;;;1.40;1.30;;;;;;;-144.22;100.00;60274.75;6278451;28;20253;-44
2022/09/30 13:48:09;;;;;;;1.20;1.03;;;;;;;-144.22;100.00;60274.75;6264583;28;20777;-42
2022/09/30 13:51:15;;;;;;;1.37;1.10;;;;;;;-144.22;100.00;60274.75;6278158;28;20703;-42
2022/09/30 13:54:32;;;;;;;1.20;1.10;;;;;;;-144.22;100.00;60274.75;6278960;28;20206;-42
2022/09/30 13:57:52;;;;;;;1.43;1.33;;;;;;;19.33;49.15;97309.78;6277796;28;20318;-42
2022/09/30 14:01:10;;;;;;;1.30;1.20;;;;;;;18.62;52.04;97311.25;6278076;28;20292;-42
2022/09/30 14:04:24;;;;;;;1.23;1.13;;;;;;;18.27;52.15;97307.34;6278005;28;20234;-43
2022/09/30 14:07:39;;;;;;;1.10;1.00;;;;;;;18.33;52.67;97313.84;6278802;28;20234;-43
2022/09/30 14:10:58;;;;;;;1.40;1.30;;;;;;;18.51;52.94;97313.50;6278355;28;20227;-42
2022/09/30 14:14:33;;;;;;;1.23;1.13;;;;;;;18.51;54.75;97305.47;6279122;28;20563;-42
2022/09/30 14:17:44;;;;;;;1.30;1.20;;;;;;;18.06;55.48;97299.22;6278306;28;20241;-42
2022/09/30 14:20:52;;;;;;;1.10;1.00;;;;;;;17.83;55.36;97298.38;6264724;28;20250;-42
2022/09/30 14:24:06;;;;;;;1.67;1.10;;;;;;;17.65;57.01;97291.50;6264182;28;20717;-43